KPLU

Pierce County - Thun Field Airport

Puyallup, Washington, USA
METAR KPLU 181115Z AUTO 00000KT 10SM -DZ CLR 04/04 A3013 RMK AO2
Observed Flight Rules
Oct-18 @ 11:15 UTC (16 minutes ago) Visual Flight Rules
Visibility Clouds Conditions
10 miles
  • Clear skies
  • Light Drizzle
Temperatures Readings
Current 4°C / 39°F
Dewpoint 4°C / 39°F
Humidity 100%
Altimeter 30.13" Hg
Pressure 1020 hPa
Elevation 164
METAR KPLU 181115Z AUTO 00000KT 10SM -DZ CLR 04/04 A3013 RMK AO2
Observed Flight Rules
Oct-18 @ 11:15 UTC
(16 minutes ago)
VFR
Clouds
  • Clear skies
Conditions
  • Light Drizzle
Temperature Dewpoint
4°C / 39°F 4°C / 39°F
Humidity Altimeter Pressure
100% 30.13" Hg 1020 hPa